Flight Track Log - Related Links

Times and Time Zones

All times are in EDT time to prevent confusion due to time zone crossing. See the CSZ9187 flight status page for this flight to view local times or setup timezone preferences in your user account.


Time Position Orientation Groundspeed Altitude Reporting Facility
EDT Latitude Longitude Course Direction KTS MPH feet Rate Location/Type
Sat 10:06:00 AM 24.0440 112.5266 313° West  Level Estimated
Sat 10:07:00 AM 24.1161 112.4404 313° West  Level Estimated
Sat 10:08:00 AM 24.1882 112.3540 312° West  Level Estimated
Sat 10:09:00 AM 24.2603 112.2675 312° West  Level Estimated
Sat 10:10:00 AM 24.3323 112.1810 312° West  Level Estimated
Sat 10:11:00 AM 24.4043 112.0943 312° West  Level Estimated
Sat 10:12:00 AM 24.4762 112.0075 312° West  Level Estimated
Sat 10:13:00 AM 24.5480 111.9207 312° West  Level Estimated
Sat 10:14:00 AM 24.6198 111.8337 312° West  Level Estimated
Sat 10:15:00 AM 24.6916 111.7467 312° West  Level Estimated
Sat 10:16:00 AM 24.7633 111.6595 312° West  Level Estimated
Sat 10:17:00 AM 24.8350 111.5722 312° West  Level Estimated
Sat 10:18:00 AM 24.9066 111.4849 312° West  Level Estimated
Sat 10:19:00 AM 24.9781 111.3974 312° West  Level Estimated
Sat 10:20:00 AM 25.0497 111.3098 312° West  Level Estimated
Sat 10:21:00 AM 25.1211 111.2222 312° West  Level Estimated
Sat 10:22:00 AM 25.1925 111.1344 312° West  Level Estimated
Sat 10:23:00 AM 25.2638 111.0465 312° West  Level Estimated
Sat 10:24:00 AM 25.3351 110.9585 312° West  Level Estimated
Sat 10:25:00 AM 25.4064 110.8705 312° West  Level Estimated
Sat 10:26:00 AM 25.4776 110.7823 312° West  Level Estimated
Sat 10:27:00 AM 25.5487 110.6940 312° West  Level Estimated
Sat 10:28:00 AM 25.6198 110.6056 312° West  Level Estimated
Sat 10:29:00 AM 25.6909 110.5171 312° West  Level Estimated
Sat 10:30:00 AM 25.7618 110.4285 312° West  Level Estimated
Sat 10:31:00 AM 25.8328 110.3398 312° West  Level Estimated
Sat 10:32:00 AM 25.9036 110.2509 312° West  Level Estimated
Sat 10:33:00 AM 25.9745 110.1620 312° West  Level Estimated
Sat 10:34:00 AM 26.0452 110.0730 312° West  Level Estimated
Sat 10:35:00 AM 26.1159 109.9838 311° West  Level Estimated
Sat 10:36:00 AM 26.1866 109.8946 311° West  Level Estimated
Sat 10:37:00 AM 26.2572 109.8052 311° West  Level Estimated
Sat 10:38:00 AM 26.3277 109.7158 311° West  Level Estimated
Sat 10:39:00 AM 26.3982 109.6262 311° West  Level Estimated
Sat 10:40:00 AM 26.4687 109.5365 311° West  Level Estimated
Sat 10:41:00 AM 26.5390 109.4467 311° West  Level Estimated
Sat 10:42:00 AM 26.6094 109.3568 311° West  Level Estimated
Sat 10:43:00 AM 26.6796 109.2668 311° West  Level Estimated
Sat 10:44:00 AM 26.7498 109.1767 311° West  Level Estimated
Sat 10:45:00 AM 26.8200 109.0865 311° West  Level Estimated
Sat 10:46:00 AM 26.8901 108.9961 311° West  Level Estimated
Sat 10:47:00 AM 26.9601 108.9056 311° West  Level Estimated
Sat 10:48:00 AM 27.0301 108.8151 311° West  Level Estimated
Sat 10:49:00 AM 27.1000 108.7244 311° West  Level Estimated
Sat 10:50:00 AM 27.1699 108.6336 311° West  Level Estimated
Sat 10:51:00 AM 27.2397 108.5427 311° West  Level Estimated
Sat 10:52:00 AM 27.3094 108.4517 311° West  Level Estimated
Sat 10:53:00 AM 27.3791 108.3605 311° West  Level Estimated
Sat 10:54:00 AM 27.4487 108.2692 311° West  Level Estimated
Sat 10:55:00 AM 27.5183 108.1779 311° West  Level Estimated
Sat 10:56:00 AM 27.5878 108.0864 311° West  Level Estimated
Sat 10:57:00 AM 27.6573 107.9948 311° West  Level Estimated
Sat 10:58:00 AM 27.7267 107.9031 311° West  Level Estimated
Sat 10:59:00 AM 27.7960 107.8112 310° West  Level Estimated
Sat 11:00:00 AM 27.8653 107.7193 310° West  Level Estimated
Sat 11:01:00 AM 27.9345 107.6272 310° West  Level Estimated
Sat 11:02:00 AM 28.0036 107.5350 310° West  Level Estimated
Sat 11:03:00 AM 28.0727 107.4427 310° West  Level Estimated
Sat 11:04:00 AM 28.1417 107.3503 310° West  Level Estimated
Sat 11:05:00 AM 28.2107 107.2577 310° West  Level Estimated
Sat 11:06:00 AM 28.2796 107.1651 310° West  Level Estimated
Sat 11:07:00 AM 28.3484 107.0723 310° West  Level Estimated
Sat 11:08:00 AM 28.4172 106.9794 310° West  Level Estimated
Sat 11:09:00 AM 28.4859 106.8864 310° West  Level Estimated
Sat 11:10:00 AM 28.5545 106.7932 310° West  Level Estimated
Sat 11:11:00 AM 28.6231 106.7000 310° West  Level Estimated
Sat 11:12:00 AM 28.6916 106.6066 310° West  Level Estimated
Sat 11:13:00 AM 28.7601 106.5130 310° West  Level Estimated
Sat 11:14:00 AM 28.8285 106.4194 310° West  Level Estimated
Sat 11:15:00 AM 28.8968 106.3257 310° West  Level Estimated
Sat 11:16:00 AM 28.9650 106.2318 310° West  Level Estimated
Sat 11:17:00 AM 29.0332 106.1378 310° West  Level Estimated
Sat 11:18:00 AM 29.1014 106.0436 310° West  Level Estimated
Sat 11:19:00 AM 29.1694 105.9494 310° West  Level Estimated
Sat 11:20:00 AM 29.2374 105.8550 310° West  Level Estimated
Sat 11:21:00 AM 29.3053 105.7605 310° West  Level Estimated
Sat 11:22:00 AM 29.3732 105.6659 309° West  Level Estimated
Sat 11:23:00 AM 29.4410 105.5711 309° West  Level Estimated
Sat 11:24:00 AM 29.5087 105.4762 309° West  Level Estimated
Sat 11:25:00 AM 29.5764 105.3812 309° West  Level Estimated
Sat 11:26:00 AM 29.6440 105.2861 309° West  Level Estimated
Sat 11:27:00 AM 29.7115 105.1908 309° West  Level Estimated
Sat 11:28:00 AM 29.7789 105.0954 309° West  Level Estimated
Sat 11:29:00 AM 29.8463 104.9999 309° West  Level Estimated
Sat 11:30:00 AM 29.9137 104.9043 309° West  Level Estimated
Sat 11:31:00 AM 29.9809 104.8085 309° West  Level Estimated
Sat 11:32:00 AM 30.0481 104.7126 309° West  Level Estimated
Sat 11:33:00 AM 30.1152 104.6165 309° West  Level Estimated
Sat 11:34:00 AM 30.1822 104.5204 309° West  Level Estimated
Sat 11:35:00 AM 30.2492 104.4241 309° West  Level Estimated
Sat 11:36:00 AM 30.3161 104.3276 309° West  Level Estimated
Sat 11:37:00 AM 30.3829 104.2311 309° West  Level Estimated
Sat 11:38:00 AM 30.4497 104.1344 309° West  Level Estimated
Sat 11:39:00 AM 30.5164 104.0375 309° West  Level Estimated
Sat 11:40:00 AM 30.5785 103.9471 309° West  Level Estimated
Sat 11:41:00 AM 30.5785 103.9471 240° Southwest  Level Estimated
Sat 11:42:00 AM 30.5785 103.9471 240° Southwest  Level Estimated
Sat 11:43:00 AM 30.5785 103.9471 240° Southwest  Level Estimated
Sat 11:44:00 AM 30.5785 103.9471 240° Southwest  Level Estimated
Sat 11:45:00 AM 30.5785 103.9471 240° Southwest  Level Estimated
Sat 11:46:00 AM 30.5785 103.9471 240° Southwest  Level Estimated
Sat 11:47:00 AM 30.5785 103.9471 240° Southwest  Level Estimated
Sat 11:48:00 AM 30.5785 103.9471 240° Southwest  Level Estimated
Sat 11:49:00 AM 30.5785 103.9471 240° Southwest  Level Estimated
Sat 11:50:00 AM 30.5785 103.9471 240° Southwest  Level Estimated
Sat 11:51:00 AM 30.5785 103.9471 240° Southwest  Level Estimated
Sat 11:52:00 AM 30.5785 103.9471 240° Southwest  Level Estimated
Sat 11:53:00 AM 30.5785 103.9471 240° Southwest  Level Estimated
Sat 11:54:00 AM 30.5785 103.9471 240° Southwest  Level Estimated
Sat 11:55:00 AM 30.5785 103.9471 240° Southwest  Level Estimated
Sat 11:56:00 AM 30.5785 103.9471 240° Southwest  Level Estimated

Login

Don't have an account? Register now (free) for customized features, flight alerts, and more!